Odin Finder — IZER — position and weather

sailwx.info

Track history (hours):
 
Tides and Currents Weather Stations Pressure Air Temp Water Temp Dewpoint Dewpoint Depression Visibility Wind Speed Wind Dir Waves Ship Positions

Odin Finder

Last reported at 2018-Feb-18 00:41 UTC. Time now 2018-May-21 05:28 UTC.
Position N 40°21' E 018°24'.
Warning: this ship's position is months out of date.

Length 46 m; draft 4.9 m.

Type: Ship. MMSI: 247048200.

Date/timePositionNaut miles runAvg speedWind from/ knotsBaromVisibWave heightAir tempDewpointWater temp
2018-Feb-18 00:41N 40°21' E 018°24'0 1.8
2018-Feb-18 00:26N 40°20' E 018°25'0 0.2
2018-Feb-17 22:49N 40°20' E 018°24'0 0.7
2018-Feb-17 22:29N 40°20' E 018°24'1 0.3
2018-Feb-17 20:19N 40°20' E 018°25'0 0.7
2018-Feb-17 19:52N 40°20' E 018°24'1 2.0
2018-Feb-17 19:17N 40°19' E 018°25'2 3.4
2018-Feb-17 18:47N 40°20' E 018°24'1 3.0
2018-Feb-17 18:28N 40°19' E 018°25'0 0.8
2018-Feb-17 17:54N 40°19' E 018°25'3 0.3
2018-Feb-17 06:16N 40°22' E 018°24'0 1.5
2018-Feb-17 05:58N 40°22' E 018°24'1 2.3
2018-Feb-17 05:29N 40°21' E 018°26'1 2.2
2018-Feb-17 05:00N 40°20' E 018°26'1 2.2
2018-Feb-17 04:29N 40°19' E 018°27'2 3.3
2018-Feb-17 03:58N 40°21' E 018°26'2 3.5
2018-Feb-17 03:30N 40°22' E 018°24'2 3.4
2018-Feb-17 02:46N 40°24' E 018°23'1 3.2
2018-Feb-17 02:29N 40°25' E 018°22'5 3.2
2018-Feb-17 01:03N 40°29' E 018°19'0 3.2
2018-Feb-17 00:57N 40°29' E 018°19'1 2.9
2018-Feb-17 00:30N 40°30' E 018°18'2 3.2
2018-Feb-17 00:00N 40°31' E 018°16'5 3.2
2018-Feb-16 22:32N 40°35' E 018°13'0 3.2
2018-Feb-16 22:30N 40°35' E 018°13'2 3.4
2018-Feb-16 21:54N 40°37' E 018°12'3 3.6
2018-Feb-16 21:09N 40°39' E 018°10'1 3.6
2018-Feb-16 20:52N 40°40' E 018°09'5 3.0
2018-Feb-16 19:05N 40°41' E 018°02'  
Track history (hours):
 
Tides and Currents Weather Stations Pressure Air Temp Water Temp Dewpoint Dewpoint Depression Visibility Wind Speed Wind Dir Waves Ship Positions

Odin Finder

Last reported at 2018-Feb-18 00:41 UTC. Time now 2018-May-21 05:28 UTC.
Position N 40°21' E 018°24'.
Warning: this ship's position is months out of date.

Length 46 m; draft 4.9 m.

Type: Ship. MMSI: 247048200.

Date/timePositionNaut miles runAvg speedWind from/ knotsBaromVisibWave heightAir tempDewpointWater temp
2018-Feb-18 00:41N 40°21' E 018°24'0 1.8
2018-Feb-18 00:26N 40°20' E 018°25'0 0.2
2018-Feb-17 22:49N 40°20' E 018°24'0 0.7
2018-Feb-17 22:29N 40°20' E 018°24'1 0.3
2018-Feb-17 20:19N 40°20' E 018°25'0 0.7
2018-Feb-17 19:52N 40°20' E 018°24'1 2.0
2018-Feb-17 19:17N 40°19' E 018°25'2 3.4
2018-Feb-17 18:47N 40°20' E 018°24'1 3.0
2018-Feb-17 18:28N 40°19' E 018°25'0 0.8
2018-Feb-17 17:54N 40°19' E 018°25'3 0.3
2018-Feb-17 06:16N 40°22' E 018°24'0 1.5
2018-Feb-17 05:58N 40°22' E 018°24'1 2.3
2018-Feb-17 05:29N 40°21' E 018°26'1 2.2
2018-Feb-17 05:00N 40°20' E 018°26'1 2.2
2018-Feb-17 04:29N 40°19' E 018°27'2 3.3
2018-Feb-17 03:58N 40°21' E 018°26'2 3.5
2018-Feb-17 03:30N 40°22' E 018°24'2 3.4
2018-Feb-17 02:46N 40°24' E 018°23'1 3.2
2018-Feb-17 02:29N 40°25' E 018°22'5 3.2
2018-Feb-17 01:03N 40°29' E 018°19'0 3.2
2018-Feb-17 00:57N 40°29' E 018°19'1 2.9
2018-Feb-17 00:30N 40°30' E 018°18'2 3.2
2018-Feb-17 00:00N 40°31' E 018°16'5 3.2
2018-Feb-16 22:32N 40°35' E 018°13'0 3.2
2018-Feb-16 22:30N 40°35' E 018°13'2 3.4
2018-Feb-16 21:54N 40°37' E 018°12'3 3.6
2018-Feb-16 21:09N 40°39' E 018°10'1 3.6
2018-Feb-16 20:52N 40°40' E 018°09'5 3.0
2018-Feb-16 19:05N 40°41' E 018°02'  

Dump ship's entire track history